Time;durP1;ratioP1;P1;durP2;ratioP2;P2;SDS_P1;SDS_P2;PMS_P1;PMS_P2;Temp;Humidity;BMP_temperature;BMP_pressure;BME280_temperature;BME280_humidity;BME280_pressure;Samples;Min_cycle;Max_cycle;Signal;HPM_P1;HPM_P2
2023/09/09 00:01:02;;;;;;;;;18.67;18.00;;;;;29.27;46.44;100689.34;4838955;29;44893;-81
2023/09/09 00:03:28;;;;;;;;;13.67;13.67;;;;;29.24;46.38;100698.63;4854662;29;46227;-82
2023/09/09 00:05:53;;;;;;;;;17.33;17.33;;;;;29.23;46.48;100701.50;4853755;29;44869;-81
2023/09/09 00:08:19;;;;;;;;;17.33;16.33;;;;;29.22;46.89;100706.06;4854858;29;44859;-81
2023/09/09 00:10:45;;;;;;;;;17.00;17.00;;;;;29.22;46.86;100706.06;4855377;29;44842;-81
2023/09/09 00:13:11;;;;;;;;;17.67;17.00;;;;;29.18;46.94;100709.97;4856128;29;45529;-82
2023/09/09 00:15:37;;;;;;;;;19.67;17.67;;;;;29.17;46.91;100707.31;4857407;29;44821;-82
2023/09/09 00:18:03;;;;;;;;;15.33;13.67;;;;;29.12;46.87;100704.91;4856977;29;44861;-82
2023/09/09 00:20:36;;;;;;;;;18.33;18.33;;;;;29.24;46.70;100708.72;4841662;29;44839;-82
2023/09/09 00:23:09;;;;;;;;;15.33;15.33;;;;;29.13;46.42;100712.16;4857778;29;45439;-82
2023/09/09 00:25:39;;;;;;;;;16.67;16.67;;;;;29.23;46.91;100707.84;4857868;29;44819;-82
2023/09/09 00:28:06;;;;;;;;;15.67;14.67;;;;;29.07;46.73;100699.69;4857811;29;45388;-82
2023/09/09 00:30:34;;;;;;;;;13.67;13.33;;;;;29.20;46.75;100707.16;4857829;29;44973;-82
2023/09/09 00:33:00;;;;;;;;;18.00;14.33;;;;;29.04;46.13;100708.09;4857554;29;44992;-82
2023/09/09 00:35:26;;;;;;;;;18.00;16.00;;;;;29.05;46.78;100703.50;4859532;29;45202;-83
2023/09/09 00:37:55;;;;;;;;;15.67;15.00;;;;;29.15;46.66;100698.34;4842573;29;44800;-82
2023/09/09 00:40:21;;;;;;;;;17.33;15.67;;;;;28.99;46.94;100690.22;4843239;29;44980;-82
2023/09/09 00:42:47;;;;;;;;;16.00;14.00;;;;;29.07;46.97;100705.16;4840691;29;47332;-82
2023/09/09 00:45:13;;;;;;;;;16.33;14.00;;;;;28.99;46.98;100692.97;4855805;29;44948;-81
2023/09/09 00:47:39;;;;;;;;;19.00;15.67;;;;;28.97;46.81;100701.25;4855693;29;44797;-81
2023/09/09 00:50:08;;;;;;;;;17.67;16.00;;;;;28.92;46.98;100693.34;4856134;29;44915;-81
2023/09/09 00:52:36;;;;;;;;;18.67;17.00;;;;;28.93;47.40;100694.22;4840054;29;46856;-81
2023/09/09 00:55:01;;;;;;;;;16.00;14.00;;;;;28.94;46.96;100693.22;4855971;29;45171;-80
2023/09/09 00:57:27;;;;;;;;;17.00;15.33;;;;;28.93;46.72;100684.13;4857311;29;44878;-81
2023/09/09 00:59:54;;;;;;;;;17.00;15.33;;;;;28.95;47.06;100691.41;4856722;29;45485;-82
2023/09/09 01:02:20;;;;;;;;;19.00;18.67;;;;;29.03;46.95;100689.91;4858256;29;45233;-82
2023/09/09 01:04:48;;;;;;;;;15.67;15.67;;;;;29.00;47.09;100701.03;4841830;29;44811;-82
2023/09/09 01:07:13;;;;;;;;;19.67;18.33;;;;;28.92;47.20;100682.41;4840104;29;44797;-82
2023/09/09 01:09:40;;;;;;;;;18.00;17.67;;;;;29.07;47.02;100690.59;4853783;29;45392;-82
2023/09/09 01:12:11;;;;;;;;;19.00;17.67;;;;;29.02;46.83;100698.22;4839478;29;47128;-82
2023/09/09 01:14:37;;;;;;;;;19.33;18.00;;;;;29.00;46.87;100692.84;4855589;29;44813;-82
2023/09/09 01:17:04;;;;;;;;;18.00;16.33;;;;;29.01;47.10;100697.34;4855789;29;44700;-82
2023/09/09 01:19:31;;;;;;;;;20.33;19.00;;;;;28.96;46.86;100690.41;4859963;29;44850;-82
2023/09/09 01:22:43;;;;;;;;;20.33;20.33;;;;;29.18;46.58;100699.03;4857818;29;45098;-82
2023/09/09 01:25:10;;;;;;;;;19.33;18.67;;;;;29.02;47.04;100695.47;4838799;29;44996;-82
2023/09/09 01:27:36;;;;;;;;;20.33;19.33;;;;;28.95;46.91;100700.47;4840200;29;44858;-82
2023/09/09 01:30:01;;;;;;;;;19.33;18.00;;;;;28.92;47.54;100696.09;4839112;29;44913;-81
2023/09/09 01:32:26;;;;;;;;;18.00;16.33;;;;;28.94;46.91;100695.97;4855273;29;45171;-82
2023/09/09 01:34:52;;;;;;;;;17.67;17.67;;;;;28.88;47.56;100691.78;4855303;29;45803;-81
2023/09/09 01:37:21;;;;;;;;;17.00;17.00;;;;;28.96;47.64;100693.13;4853972;29;45307;-81
2023/09/09 01:39:47;;;;;;;;;19.00;18.00;;;;;28.86;47.29;100710.13;4855910;29;44766;-82
2023/09/09 01:42:12;;;;;;;;;21.67;20.00;;;;;28.82;47.46;100697.63;4855700;29;46710;-81
2023/09/09 01:44:39;;;;;;;;;17.00;17.00;;;;;28.89;47.46;100706.34;4857087;29;44701;-81
2023/09/09 01:53:49;;;;;;;;;18.33;16.67;;;;;28.77;47.79;100696.16;4857153;29;44842;-82
2023/09/09 01:56:14;;;;;;;;;18.00;17.33;;;;;28.74;47.73;100689.00;4859818;29;44774;-81
2023/09/09 01:58:39;;;;;;;;;17.33;16.33;;;;;28.75;47.91;100700.88;4860008;29;44974;-82
2023/09/09 02:01:05;;;;;;;;;17.33;15.67;;;;;28.69;47.78;100693.91;4859414;29;44930;-82
2023/09/09 02:03:31;;;;;;;;;21.00;19.67;;;;;28.72;48.35;100701.91;4842266;29;46872;-80
2023/09/09 02:05:56;;;;;;;;;20.00;18.33;;;;;28.68;47.98;100697.59;4843602;29;45784;-80
2023/09/09 02:08:22;;;;;;;;;18.67;18.00;;;;;28.66;48.47;100696.81;4857518;29;44771;-82
2023/09/09 02:10:50;;;;;;;;;15.33;15.33;;;;;28.75;48.55;100695.38;4857395;29;44727;-82
2023/09/09 02:13:16;;;;;;;;;19.33;18.00;;;;;28.63;48.72;100692.44;4840451;29;46994;-82
2023/09/09 02:15:46;;;;;;;;;15.33;15.33;;;;;28.69;48.65;100702.13;4857319;29;44788;-82
2023/09/09 02:18:11;;;;;;;;;19.00;19.00;;;;;28.59;48.90;100696.34;4842081;29;44881;-82
2023/09/09 02:20:37;;;;;;;;;20.00;19.33;;;;;28.58;48.75;100689.13;4858353;29;44755;-82
2023/09/09 02:23:03;;;;;;;;;21.00;20.67;;;;;28.60;49.08;100697.19;4856408;29;45339;-82
2023/09/09 02:25:28;;;;;;;;;18.67;18.67;;;;;28.57;49.09;100691.94;4856136;29;44790;-82
2023/09/09 02:27:55;;;;;;;;;21.67;19.33;;;;;28.59;49.47;100679.91;4856847;29;44839;-82
2023/09/09 02:30:21;;;;;;;;;19.00;18.33;;;;;28.52;49.22;100690.38;4857473;29;44839;-82
2023/09/09 02:32:47;;;;;;;;;18.33;18.33;;;;;28.50;49.23;100697.78;4857783;29;45050;-82
2023/09/09 02:35:13;;;;;;;;;24.67;22.67;;;;;28.48;49.41;100687.84;4857742;29;44834;-82
2023/09/09 02:37:41;;;;;;;;;25.67;22.33;;;;;28.53;49.38;100681.16;4842105;29;44878;-82
2023/09/09 02:40:07;;;;;;;;;19.00;18.00;;;;;28.47;49.12;100692.47;4842013;29;44925;-82
2023/09/09 02:42:33;;;;;;;;;22.00;19.67;;;;;28.44;49.58;100692.66;4857821;29;45241;-82
2023/09/09 02:44:58;;;;;;;;;24.00;21.33;;;;;28.44;49.42;100689.03;4858927;29;44811;-82
2023/09/09 02:47:23;;;;;;;;;24.00;22.00;;;;;28.42;49.36;100702.81;4841207;29;45202;-82
2023/09/09 02:49:51;;;;;;;;;19.67;18.33;;;;;28.45;49.42;100694.41;4857901;29;44868;-82
2023/09/09 02:52:17;;;;;;;;;23.33;21.33;;;;;28.40;49.23;100696.56;4858295;29;45391;-82
2023/09/09 02:54:45;;;;;;;;;23.67;22.00;;;;;28.37;49.74;100685.78;4856375;29;44872;-82
2023/09/09 02:57:10;;;;;;;;;21.00;19.33;;;;;28.38;49.96;100695.78;4855798;29;45318;-82
2023/09/09 02:59:36;;;;;;;;;20.33;20.33;;;;;28.39;49.97;100681.13;4855775;29;44763;-82
2023/09/09 03:02:02;;;;;;;;;20.00;18.33;;;;;28.20;49.82;100667.69;4856518;29;45086;-82
2023/09/09 03:04:32;;;;;;;;;23.00;23.00;;;;;28.36;49.51;100675.84;4856647;29;44722;-82
2023/09/09 03:06:58;;;;;;;;;24.00;21.67;;;;;28.25;49.86;100687.41;4839483;29;44845;-82
2023/09/09 03:09:26;;;;;;;;;21.67;21.67;;;;;28.22;49.79;100675.78;4838428;29;44872;-82
2023/09/09 03:11:53;;;;;;;;;21.33;20.00;;;;;28.24;50.03;100691.16;4836184;29;47787;-81
2023/09/09 03:14:19;;;;;;;;;20.00;19.00;;;;;28.23;49.87;100691.22;4853751;29;44780;-81
2023/09/09 03:16:46;;;;;;;;;20.67;20.67;;;;;28.23;50.34;100689.38;4838343;29;44824;-82
2023/09/09 03:19:15;;;;;;;;;23.00;20.67;;;;;28.26;50.03;100688.31;4854591;29;44891;-82
2023/09/09 03:21:42;;;;;;;;;12.33;10.67;;;;;28.17;50.35;100677.94;4840031;29;47666;-82
2023/09/09 03:24:09;;;;;;;;;18.33;17.00;;;;;28.13;50.05;100689.03;4856712;29;44905;-82
2023/09/09 03:26:38;;;;;;;;;25.67;22.33;;;;;28.20;49.73;100678.63;4856650;29;44739;-82
2023/09/09 03:29:04;;;;;;;;;21.00;20.00;;;;;28.07;50.02;100689.41;4855892;29;44837;-82
2023/09/09 03:31:29;;;;;;;;;18.67;17.00;;;;;28.08;49.95;100691.19;4838047;29;47903;-82
2023/09/09 03:33:55;;;;;;;;;20.00;20.00;;;;;28.04;50.62;100684.16;4837508;29;45687;-82
2023/09/09 03:36:20;;;;;;;;;18.67;18.00;;;;;28.00;50.53;100685.31;4839282;29;45255;-82
2023/09/09 03:38:47;;;;;;;;;20.67;19.33;;;;;28.08;50.38;100691.19;4838799;29;45000;-82
2023/09/09 03:41:13;;;;;;;;;17.33;17.33;;;;;27.95;50.79;100681.06;4838613;29;47349;-82
2023/09/09 03:43:38;;;;;;;;;19.00;19.00;;;;;27.91;50.87;100683.09;4853927;29;44767;-82
2023/09/09 03:46:04;;;;;;;;;21.67;19.67;;;;;27.93;50.72;100686.63;4853987;29;45325;-82
2023/09/09 03:48:30;;;;;;;;;20.33;19.00;;;;;27.92;50.92;100679.41;4839021;29;44904;-82
2023/09/09 03:51:02;;;;;;;;;23.67;20.67;;;;;28.00;50.37;100682.56;4854857;29;47327;-82
2023/09/09 03:53:28;;;;;;;;;20.67;20.67;;;;;27.90;50.98;100686.81;4838938;29;44830;-82
2023/09/09 03:56:00;;;;;;;;;19.67;19.00;;;;;27.94;51.29;100677.47;4840082;29;44792;-82
2023/09/09 03:58:26;;;;;;;;;22.00;19.33;;;;;27.85;50.80;100691.63;4856169;29;44744;-82
2023/09/09 04:01:09;;;;;;;;;19.33;19.33;;;;;27.95;51.07;100683.81;4854256;29;45250;-82
2023/09/09 04:03:37;;;;;;;;;26.33;22.67;;;;;27.91;51.55;100691.31;4838115;29;44933;-82
2023/09/09 04:06:07;;;;;;;;;19.33;19.33;;;;;27.69;51.20;100678.88;4837499;29;44766;-83
2023/09/09 04:08:34;;;;;;;;;20.67;20.67;;;;;27.81;51.57;100688.19;4837394;29;44901;-82
2023/09/09 04:11:00;;;;;;;;;21.00;20.00;;;;;27.76;50.94;100684.88;4853375;29;44981;-82
2023/09/09 04:13:26;;;;;;;;;21.33;20.33;;;;;27.78;51.55;100696.59;4836098;29;44785;-82
2023/09/09 04:15:56;;;;;;;;;22.33;20.00;;;;;27.86;51.28;100696.13;4835924;29;44770;-82
2023/09/09 04:18:26;;;;;;;;;28.67;22.00;;;;;27.82;51.68;100684.50;4839006;29;44982;-82
2023/09/09 04:20:51;;;;;;;;;21.00;21.00;;;;;27.74;51.69;100693.16;4855788;29;45113;-82
2023/09/09 04:23:18;;;;;;;;;21.00;19.67;;;;;27.80;52.19;100707.44;4854125;29;44749;-81
2023/09/09 04:25:44;;;;;;;;;20.33;19.33;;;;;27.74;52.36;100704.06;4853052;29;44784;-80
2023/09/09 04:28:11;;;;;;;;;23.00;21.00;;;;;27.63;52.21;100694.72;4853079;29;44841;-81
2023/09/09 04:30:40;;;;;;;;;22.67;21.00;;;;;27.79;52.48;100701.06;4854086;29;45399;-81
2023/09/09 04:33:11;;;;;;;;;23.33;22.33;;;;;27.74;52.44;100700.47;4837933;29;44789;-82
2023/09/09 04:35:42;;;;;;;;;21.67;20.33;;;;;27.73;52.30;100702.34;4836534;29;45558;-81
2023/09/09 04:38:09;;;;;;;;;20.67;18.00;;;;;27.62;52.48;100703.91;4853579;29;44754;-82
2023/09/09 04:40:42;;;;;;;;;18.33;17.00;;;;;27.68;52.95;100698.97;4852583;29;46693;-82
2023/09/09 04:43:17;;;;;;;;;21.33;19.67;;;;;27.58;52.72;100700.47;4852241;29;44771;-82
2023/09/09 04:45:43;;;;;;;;;23.33;19.00;;;;;27.54;53.00;100704.34;4852225;29;44733;-81
2023/09/09 04:48:10;;;;;;;;;21.00;20.33;;;;;27.51;52.93;100702.69;4835640;29;44828;-82
2023/09/09 04:50:38;;;;;;;;;16.00;16.00;;;;;27.61;53.23;100702.13;4835353;29;47177;-82
2023/09/09 04:53:05;;;;;;;;;19.67;19.67;;;;;27.46;53.15;100703.91;4849375;29;44795;-82
2023/09/09 04:55:31;;;;;;;;;19.00;17.00;;;;;27.45;53.69;100696.66;4834643;29;44834;-82
2023/09/09 04:57:57;;;;;;;;;21.33;20.00;;;;;27.45;53.37;100703.03;4838058;29;44849;-82
2023/09/09 05:00:22;;;;;;;;;20.00;18.00;;;;;27.41;53.69;100703.28;4838617;29;45305;-81
2023/09/09 05:02:51;;;;;;;;;18.67;18.00;;;;;27.45;53.33;100689.38;4855871;29;44962;-82
2023/09/09 05:05:16;;;;;;;;;17.67;17.00;;;;;27.36;53.96;100697.22;4853988;29;44879;-81
2023/09/09 05:07:41;;;;;;;;;19.00;17.33;;;;;27.37;53.83;100693.50;4854360;29;44866;-82
2023/09/09 05:10:07;;;;;;;;;20.67;20.00;;;;;27.29;54.09;100689.38;4854657;29;45296;-83
2023/09/09 05:12:33;;;;;;;;;20.33;20.33;;;;;27.37;53.79;100704.41;4852630;29;45026;-81
2023/09/09 05:14:59;;;;;;;;;16.33;16.33;;;;;27.30;53.87;100703.91;4854706;29;45345;-81
2023/09/09 05:17:25;;;;;;;;;19.33;19.33;;;;;27.27;54.36;100704.97;4838449;29;44817;-82
2023/09/09 05:19:51;;;;;;;;;20.67;20.67;;;;;27.25;53.86;100698.72;4838410;29;47289;-83
2023/09/09 05:22:16;;;;;;;;;18.33;17.67;;;;;27.28;54.31;100703.97;4854516;29;44799;-81
2023/09/09 05:24:42;;;;;;;;;20.00;20.00;;;;;27.29;54.04;100703.03;4839761;29;44791;-82
2023/09/09 05:27:09;;;;;;;;;18.67;18.67;;;;;27.37;54.03;100699.88;4841233;29;44864;-83
2023/09/09 05:29:35;;;;;;;;;22.33;21.33;;;;;27.33;53.83;100710.06;4841307;29;47190;-82
2023/09/09 05:32:00;;;;;;;;;19.00;19.00;;;;;27.33;54.26;100714.66;4842222;29;44977;-82
2023/09/09 05:34:28;;;;;;;;;21.67;19.33;;;;;27.31;54.45;100703.81;4856927;29;45241;-82
2023/09/09 05:36:55;;;;;;;;;21.00;19.00;;;;;27.45;54.57;100713.06;4840012;29;44830;-81
2023/09/09 05:39:20;;;;;;;;;20.00;18.33;;;;;27.36;54.23;100717.22;4854721;29;45283;-82
2023/09/09 05:41:46;;;;;;;;;18.67;18.33;;;;;27.41;54.20;100722.41;4837921;29;45321;-82
2023/09/09 05:44:11;;;;;;;;;20.00;19.00;;;;;27.43;54.49;100725.91;4855502;29;44876;-82
2023/09/09 05:46:43;;;;;;;;;19.00;19.00;;;;;27.59;53.87;100726.84;4839654;29;45859;-82
2023/09/09 05:49:09;;;;;;;;;20.33;20.33;;;;;27.42;54.25;100724.19;4856221;29;45266;-82
2023/09/09 05:51:35;;;;;;;;;18.33;18.33;;;;;27.45;53.96;100722.16;4840245;29;45304;-82
2023/09/09 05:54:43;;;;;;;;;19.33;18.33;;;;;27.70;54.18;100729.81;4839314;29;44772;-82
2023/09/09 05:57:09;;;;;;;;;22.67;20.00;;;;;27.59;54.56;100735.03;4837953;29;44979;-83
2023/09/09 05:59:34;;;;;;;;;22.00;22.00;;;;;27.62;54.41;100723.91;4853902;29;46399;-82
2023/09/09 06:02:00;;;;;;;;;18.00;16.67;;;;;27.65;54.77;100723.75;4838617;29;44671;-82
2023/09/09 06:04:25;;;;;;;;;22.00;19.33;;;;;27.71;54.59;100726.13;4854530;29;44757;-82
2023/09/09 06:06:54;;;;;;;;;22.00;19.33;;;;;27.89;54.04;100728.78;4836475;29;44769;-82
2023/09/09 06:09:19;;;;;;;;;20.00;19.33;;;;;27.75;54.17;100721.34;4836713;29;47318;-82
2023/09/09 06:11:45;;;;;;;;;20.00;18.00;;;;;27.86;54.39;100728.94;4852311;29;44825;-82
2023/09/09 06:14:14;;;;;;;;;21.33;21.33;;;;;28.01;54.08;100732.66;4854116;29;44917;-82
2023/09/09 06:16:40;;;;;;;;;21.33;20.67;;;;;27.96;54.08;100740.25;4855477;29;44771;-82
2023/09/09 06:19:08;;;;;;;;;21.00;19.33;;;;;28.11;53.44;100731.13;4857599;29;45192;-82
2023/09/09 06:21:33;;;;;;;;;20.67;20.67;;;;;28.04;53.94;100736.09;4841206;29;44999;-81
2023/09/09 06:23:59;;;;;;;;;22.33;22.33;;;;;28.10;54.20;100741.19;4856554;29;44958;-81
2023/09/09 06:26:30;;;;;;;;;20.67;18.67;;;;;28.21;53.96;100743.28;4856276;29;44789;-81
2023/09/09 06:28:58;;;;;;;;;20.00;20.00;;;;;28.27;53.68;100751.13;4857163;29;45055;-81
2023/09/09 06:31:24;;;;;;;;;20.00;20.00;;;;;28.31;53.72;100751.81;4858907;29;45451;-81
2023/09/09 06:33:49;;;;;;;;;20.00;20.00;;;;;28.30;53.15;100745.47;4857893;29;44882;-81
2023/09/09 06:36:16;;;;;;;;;19.00;19.00;;;;;28.28;53.50;100738.34;4855008;29;44934;-81
2023/09/09 06:38:41;;;;;;;;;25.67;20.67;;;;;28.37;53.53;100753.31;4838486;29;46989;-81
2023/09/09 06:41:07;;;;;;;;;22.00;20.00;;;;;28.41;53.55;100750.28;4855284;29;44793;-81
2023/09/09 06:43:34;;;;;;;;;22.00;22.00;;;;;28.58;53.20;100752.06;4854931;29;44853;-82
2023/09/09 06:46:00;;;;;;;;;21.00;19.00;;;;;28.51;53.06;100753.38;4854702;29;44738;-84
2023/09/09 06:48:30;;;;;;;;;23.00;21.00;;;;;28.67;52.81;100747.84;4855430;29;46461;-83
2023/09/09 06:50:55;;;;;;;;;23.67;22.00;;;;;28.60;53.00;100746.47;4838718;29;44979;-83
2023/09/09 06:53:24;;;;;;;;;22.00;21.00;;;;;28.77;53.02;100743.56;4838347;29;45151;-84
2023/09/09 06:55:52;;;;;;;;;22.00;19.00;;;;;28.82;52.90;100752.38;4853113;29;44754;-83
2023/09/09 06:58:17;;;;;;;;;21.00;16.67;;;;;28.77;52.67;100754.53;4852510;29;45142;-83
2023/09/09 07:00:49;;;;;;;;;22.00;21.67;;;;;28.93;52.52;100743.50;4834047;29;45460;-84
2023/09/09 07:03:15;;;;;;;;;19.67;19.33;;;;;28.88;52.66;100746.53;4834392;29;45321;-83
2023/09/09 07:05:40;;;;;;;;;3.00;2.00;;;;;28.93;52.37;100733.41;4834499;29;44783;-84
2023/09/09 07:08:06;;;;;;;;;24.33;20.00;;;;;29.05;52.27;100747.31;4850228;29;45471;-84
2023/09/09 07:10:31;;;;;;;;;20.00;20.00;;;;;29.13;52.51;100736.81;4852632;29;44849;-83
2023/09/09 07:12:57;;;;;;;;;20.67;19.00;;;;;29.26;51.93;100745.97;4853551;29;44829;-84
2023/09/09 07:15:22;;;;;;;;;20.67;20.00;;;;;29.29;52.09;100740.31;4851863;29;45493;-83
2023/09/09 07:17:48;;;;;;;;;22.00;22.00;;;;;29.36;51.40;100746.25;4836372;29;47064;-83
2023/09/09 07:20:17;;;;;;;;;19.00;19.00;;;;;29.34;51.60;100730.91;4836436;29;45473;-84
2023/09/09 07:22:43;;;;;;;;;24.00;23.67;;;;;29.36;51.42;100746.25;4852218;29;45428;-83
2023/09/09 07:25:09;;;;;;;;;19.67;19.00;;;;;29.49;51.83;100749.97;4853655;29;45329;-83
2023/09/09 07:27:34;;;;;;;;;19.00;19.00;;;;;29.55;51.60;100748.72;4852404;29;45536;-84
2023/09/09 07:30:04;;;;;;;;;23.33;23.00;;;;;29.60;51.57;100746.53;4851171;29;44735;-85
2023/09/09 07:32:31;;;;;;;;;22.33;20.00;;;;;29.66;51.37;100748.88;4854059;29;44868;-84
2023/09/09 07:34:57;;;;;;;;;24.33;23.67;;;;;29.73;51.01;100748.50;4854891;29;44797;-83
2023/09/09 07:37:24;;;;;;;;;20.00;20.00;;;;;29.83;50.76;100738.66;4853281;29;45373;-84
2023/09/09 07:39:51;;;;;;;;;18.33;18.33;;;;;29.84;50.86;100751.41;4837218;29;44727;-85
2023/09/09 07:42:17;;;;;;;;;21.67;21.67;;;;;29.85;50.90;100753.16;4852331;29;44817;-84
2023/09/09 07:48:33;;;;;;;;;20.33;19.00;;;;;30.06;50.34;100751.72;4833110;29;44948;-85
2023/09/09 07:50:59;;;;;;;;;17.00;17.00;;;;;29.93;50.48;100756.25;4831975;29;45433;-85
2023/09/09 07:53:24;;;;;;;;;17.00;15.00;;;;;29.92;50.21;100754.53;4817015;29;44751;-84
2023/09/09 07:55:51;;;;;;;;;18.00;16.33;;;;;30.00;49.61;100754.88;4818719;29;44935;-83
2023/09/09 07:58:18;;;;;;;;;17.00;14.00;;;;;30.03;49.34;100754.66;4816913;29;46789;-84
2023/09/09 08:00:44;;;;;;;;;17.00;17.00;;;;;30.09;49.12;100770.69;4817546;29;45552;-83
2023/09/09 08:03:11;;;;;;;;;7.67;7.67;;;;;30.10;48.86;100757.91;4832724;29;44880;-84
2023/09/09 08:05:39;;;;;;;;;19.33;17.67;;;;;30.17;48.71;100752.84;4818355;29;45310;-86
2023/09/09 08:08:06;;;;;;;;;15.00;15.00;;;;;30.21;48.84;100757.16;4833224;29;48113;-84
2023/09/09 08:13:54;;;;;;;;;14.33;14.33;;;;;30.32;48.07;100757.34;4836551;29;45501;-84
2023/09/09 08:16:19;;;;;;;;;15.67;14.33;;;;;30.33;48.27;100753.59;4835445;29;45405;-83
2023/09/09 08:18:45;;;;;;;;;16.67;15.00;;;;;30.36;48.25;100756.16;4818704;29;47104;-85
2023/09/09 08:21:12;;;;;;;;;19.67;18.00;;;;;30.44;47.69;100766.56;4820063;29;44805;-84
2023/09/09 08:23:39;;;;;;;;;15.33;15.33;;;;;30.62;47.50;100765.31;4818743;29;44848;-82
2023/09/09 08:26:09;;;;;;;;;13.00;13.00;;;;;30.55;47.44;100757.63;4834872;29;44908;-84
2023/09/09 08:28:38;;;;;;;;;14.00;13.33;;;;;30.77;47.16;100766.09;4834374;29;45394;-84
2023/09/09 08:31:03;;;;;;;;;13.00;12.00;;;;;30.70;46.82;100767.50;4835381;29;45340;-84
2023/09/09 08:33:29;;;;;;;;;7.00;5.67;;;;;30.76;46.81;100771.69;4839771;29;44919;-85
2023/09/09 08:39:19;;;;;;;;;17.67;16.00;;;;;30.96;46.76;100773.06;4837418;29;45438;-83
2023/09/09 08:42:06;;;;;;;;;14.00;14.00;;;;;31.23;46.08;100773.84;4820747;29;44853;-83
2023/09/09 08:44:59;;;;;;;;;15.67;14.33;;;;;31.36;45.97;100765.56;4820458;29;44903;-85
2023/09/09 08:47:25;;;;;;;;;15.00;15.00;;;;;31.27;45.18;100760.75;4817570;29;44924;-84
2023/09/09 08:49:53;;;;;;;;;19.33;15.00;;;;;31.34;45.32;100758.44;4855134;29;45404;-85
2023/09/09 08:52:25;;;;;;;;;17.00;15.67;;;;;31.42;45.09;100754.13;4854283;29;44735;-85
2023/09/09 08:54:58;;;;;;;;;13.67;13.67;;;;;31.45;44.61;100766.78;4838133;29;44910;-85
2023/09/09 08:57:28;;;;;;;;;14.67;13.33;;;;;31.50;44.85;100761.84;4837824;29;45674;-85
2023/09/09 08:59:55;;;;;;;;;13.67;13.67;;;;;31.46;44.80;100758.44;4835900;29;46252;-85
2023/09/09 09:05:47;;;;;;;;;15.33;15.33;;;;;31.66;44.11;100756.97;4853703;29;44844;-85
2023/09/09 09:08:12;;;;;;;;;16.00;14.00;;;;;31.58;44.20;100748.41;4856895;29;44838;-85
2023/09/09 09:10:42;;;;;;;;;14.00;14.00;;;;;31.64;43.65;100753.47;4855753;29;45464;-85
2023/09/09 09:13:09;;;;;;;;;13.00;13.00;;;;;31.63;44.22;100751.72;4838862;29;45400;-85
2023/09/09 09:15:39;;;;;;;;;17.33;15.00;;;;;31.84;43.91;100756.59;4857992;29;44877;-85
2023/09/09 09:18:15;;;;;;;;;15.33;13.33;;;;;31.98;43.78;100752.81;4841349;29;45546;-85
2023/09/09 09:20:44;;;;;;;;;16.67;15.67;;;;;32.01;43.37;100749.84;4857216;29;45086;-85
2023/09/09 09:23:14;;;;;;;;;18.67;18.67;;;;;32.01;43.66;100756.22;4856777;29;44772;-84
2023/09/09 09:25:44;;;;;;;;;16.00;15.67;;;;;32.12;43.87;100765.53;4856690;29;44892;-84
2023/09/09 09:28:12;;;;;;;;;17.00;17.00;;;;;32.16;43.94;100764.28;4841552;29;44920;-82
2023/09/09 09:30:37;;;;;;;;;18.67;17.67;;;;;32.04;43.30;100736.75;4837701;29;47260;-84
2023/09/09 09:33:14;;;;;;;;;15.33;14.00;;;;;32.16;42.77;100732.19;4853812;29;44814;-84
2023/09/09 09:35:41;;;;;;;;;14.67;13.00;;;;;32.30;43.67;100766.88;4856712;29;44878;-84
2023/09/09 09:38:09;;;;;;;;;14.00;14.00;;;;;32.40;43.19;100764.28;4854779;29;45407;-84
2023/09/09 09:40:36;;;;;;;;;17.00;17.00;;;;;32.38;42.79;100764.44;4839442;29;47283;-84
2023/09/09 09:43:02;;;;;;;;;16.67;15.33;;;;;32.36;43.27;100749.00;4855691;29;44817;-84
2023/09/09 09:45:32;;;;;;;;;16.00;15.00;;;;;32.56;42.80;100758.50;4854461;29;44913;-83
2023/09/09 09:47:58;;;;;;;;;16.00;14.33;;;;;32.62;43.19;100761.66;4853612;29;44907;-84
2023/09/09 09:50:40;;;;;;;;;16.00;14.67;;;;;32.78;42.39;100761.31;4855608;29;46464;-84
2023/09/09 09:53:07;;;;;;;;;18.00;18.00;;;;;32.77;42.63;100762.31;4838791;29;44952;-84
2023/09/09 09:55:36;;;;;;;;;19.00;17.33;;;;;32.77;42.26;100759.56;4837201;29;44768;-84
2023/09/09 09:58:45;;;;;;;;;14.67;14.67;;;;;32.99;41.99;100755.13;4836970;29;45415;-85
2023/09/09 10:01:11;;;;;;;;;17.00;16.67;;;;;32.88;42.17;100750.44;4839199;29;46721;-85
2023/09/09 10:04:01;;;;;;;;;15.33;15.33;;;;;33.16;41.55;100754.66;4855709;29;45341;-85
2023/09/09 10:06:30;;;;;;;;;16.33;16.33;;;;;33.06;41.31;100750.84;4839400;29;45935;-83
2023/09/09 10:09:41;;;;;;;;;16.67;16.67;;;;;33.23;41.39;100744.88;4840182;29;45591;-84
2023/09/09 10:12:38;;;;;;;;;15.00;15.00;;;;;33.34;40.91;100751.41;4799493;29;47209;-84
2023/09/09 10:15:05;;;;;;;;;14.33;14.00;;;;;33.25;40.22;100761.31;4815039;29;44967;-85
2023/09/09 10:17:32;;;;;;;;;15.33;13.00;;;;;33.30;40.21;100749.91;4815039;29;45598;-84
2023/09/09 10:20:01;;;;;;;;;18.00;16.67;;;;;33.35;39.73;100753.13;4816311;29;45268;-85
2023/09/09 10:22:28;;;;;;;;;18.00;18.00;;;;;33.21;39.56;100741.38;4815896;29;45526;-84
2023/09/09 10:24:57;;;;;;;;;19.00;19.00;;;;;33.28;39.83;100741.75;4815598;29;45457;-84
2023/09/09 10:27:27;;;;;;;;;13.67;13.67;;;;;33.47;40.15;100747.53;4814666;29;45529;-84
2023/09/09 10:29:58;;;;;;;;;15.33;15.33;;;;;33.57;39.44;100746.75;4814832;29;44937;-84
2023/09/09 10:32:25;;;;;;;;;15.33;15.33;;;;;33.56;39.73;100736.72;4815429;29;47427;-83
2023/09/09 10:34:53;;;;;;;;;16.67;15.00;;;;;33.61;39.18;100751.94;4816129;29;45473;-84
2023/09/09 10:37:22;;;;;;;;;16.33;16.00;;;;;33.77;39.06;100747.88;4816450;29;44901;-84
2023/09/09 10:39:49;;;;;;;;;15.67;15.33;;;;;33.74;38.59;100737.97;4785321;29;44798;-84
2023/09/09 10:42:16;;;;;;;;;18.00;16.67;;;;;33.86;38.28;100741.59;4815122;29;45442;-84
2023/09/09 10:44:48;;;;;;;;;15.33;15.33;;;;;33.95;38.15;100745.44;4815966;29;44861;-84
2023/09/09 10:47:21;;;;;;;;;17.33;16.33;;;;;33.90;38.17;100743.09;4837079;29;44805;-86
2023/09/09 10:50:04;;;;;;;;;16.00;15.67;;;;;34.00;38.66;100730.25;4837745;29;44769;-85
2023/09/09 10:52:33;;;;;;;;;18.33;16.33;;;;;33.92;38.14;100735.56;4854485;29;45551;-82
2023/09/09 10:55:27;;;;;;;;;15.33;15.33;;;;;34.09;37.82;100747.91;4840421;29;44753;-82
2023/09/09 10:57:57;;;;;;;;;16.67;16.67;;;;;34.04;37.22;100734.50;4854757;29;44822;-82
2023/09/09 11:00:39;;;;;;;;;14.00;14.00;;;;;34.11;37.18;100728.47;4854027;29;44895;-82
2023/09/09 11:03:16;;;;;;;;;14.67;14.33;;;;;34.13;38.03;100727.31;4835599;29;46924;-81
2023/09/09 11:06:02;;;;;;;;;15.00;15.00;;;;;34.32;38.22;100734.06;4852165;29;45581;-85
2023/09/09 11:08:46;;;;;;;;;17.33;16.00;;;;;34.32;37.47;100715.63;4852485;29;44832;-85
2023/09/09 11:11:17;;;;;;;;;16.33;16.33;;;;;34.41;37.61;100723.09;4852416;29;44929;-84
2023/09/09 11:14:05;;;;;;;;;15.33;15.33;;;;;34.50;38.16;100721.44;4852560;29;46231;-84
2023/09/09 11:16:36;;;;;;;;;18.67;18.67;;;;;34.53;37.41;100720.28;4834695;29;45468;-84
2023/09/09 11:19:10;;;;;;;;;19.67;18.67;;;;;34.42;37.81;100719.34;4854167;29;44736;-84
2023/09/09 11:21:41;;;;;;;;;17.67;17.00;;;;;34.60;37.60;100718.72;4838318;29;44837;-85
2023/09/09 11:24:08;;;;;;;;;17.00;17.00;;;;;34.59;36.98;100714.22;4852693;29;45677;-84
2023/09/09 11:26:43;;;;;;;;;18.00;18.00;;;;;34.65;36.37;100714.56;4853002;29;44913;-85
2023/09/09 11:29:09;;;;;;;;;13.67;13.67;;;;;34.58;36.20;100715.22;4852364;29;45491;-84
2023/09/09 11:31:36;;;;;;;;;16.67;16.00;;;;;34.57;36.98;100710.72;4853523;29;45747;-84
2023/09/09 11:34:04;;;;;;;;;15.00;14.00;;;;;34.62;36.63;100705.66;4852281;29;45436;-85
2023/09/09 11:36:30;;;;;;;;;14.00;14.00;;;;;34.62;37.22;100700.13;4835201;29;44786;-84